Time;durP1;ratioP1;P1;durP2;ratioP2;P2;SDS_P1;SDS_P2;PMS_P1;PMS_P2;Temp;Humidity;BMP_temperature;BMP_pressure;BME280_temperature;BME280_humidity;BME280_pressure;Samples;Min_cycle;Max_cycle;Signal;HPM_P1;HPM_P2
2023/09/20 00:00:55;;;;;;;5.47;4.97;;;16.70;99.90;;;;;;5249615;28;20035;-77
2023/09/20 00:03:25;;;;;;;5.18;4.72;;;16.60;99.90;;;;;;5249841;28;20028;-76
2023/09/20 00:05:56;;;;;;;5.53;5.00;;;16.50;99.90;;;;;;5249560;28;20047;-76
2023/09/20 00:08:29;;;;;;;6.28;5.68;;;16.30;99.90;;;;;;5249167;28;20039;-76
2023/09/20 00:11:00;;;;;;;7.05;5.30;;;16.50;99.90;;;;;;5249528;28;20153;-76
2023/09/20 00:13:33;;;;;;;6.05;4.60;;;16.50;99.90;;;;;;5249336;28;20111;-76
2023/09/20 00:16:04;;;;;;;6.25;4.72;;;16.60;99.90;;;;;;5249065;28;20353;-76
2023/09/20 00:18:35;;;;;;;5.32;4.68;;;16.60;99.90;;;;;;5249510;28;20034;-75
2023/09/20 00:21:06;;;;;;;5.45;4.88;;;16.60;99.90;;;;;;5248562;28;20048;-76
2023/09/20 00:23:37;;;;;;;5.50;5.00;;;16.40;99.90;;;;;;5248794;28;20035;-75
2023/09/20 00:26:08;;;;;;;5.40;4.85;;;16.50;99.90;;;;;;5249376;28;20024;-76
2023/09/20 00:28:39;;;;;;;5.80;5.05;;;16.40;99.90;;;;;;5249152;28;20020;-76
2023/09/20 00:31:11;;;;;;;4.88;4.43;;;16.40;99.90;;;;;;5249133;28;20025;-76
2023/09/20 00:33:43;;;;;;;6.00;5.40;;;16.40;99.90;;;;;;5249404;28;20103;-76
2023/09/20 00:36:20;;;;;;;5.95;5.45;;;16.20;99.90;;;;;;5248715;28;20434;-76
2023/09/20 00:38:52;;;;;;;5.40;4.88;;;16.10;99.90;;;;;;5248851;28;20021;-77
2023/09/20 00:41:24;;;;;;;6.43;4.95;;;16.20;99.90;;;;;;5248723;28;20115;-76
2023/09/20 00:43:54;;;;;;;5.88;5.30;;;16.10;99.90;;;;;;5248804;28;20031;-76
2023/09/20 00:46:25;;;;;;;5.88;5.38;;;16.10;99.90;;;;;;5248920;28;20021;-76
2023/09/20 00:48:56;;;;;;;5.95;5.18;;;16.20;99.90;;;;;;5248641;28;20060;-75
2023/09/20 00:51:28;;;;;;;5.82;5.15;;;16.10;99.90;;;;;;5248567;28;20035;-76
2023/09/20 00:54:03;;;;;;;5.82;5.32;;;16.00;99.90;;;;;;5248830;28;20036;-76
2023/09/20 00:56:34;;;;;;;5.22;4.82;;;16.00;99.90;;;;;;5247517;28;20033;-75
2023/09/20 00:59:07;;;;;;;5.43;4.43;;;16.00;99.90;;;;;;5248712;28;20044;-76
2023/09/20 01:01:40;;;;;;;5.63;5.13;;;16.00;99.90;;;;;;5248580;28;20028;-76
2023/09/20 01:04:11;;;;;;;5.82;5.30;;;16.00;99.90;;;;;;5248547;28;20063;-76
2023/09/20 01:06:46;;;;;;;5.05;4.53;;;15.80;99.90;;;;;;5248370;28;20048;-75
2023/09/20 01:09:17;;;;;;;5.47;4.60;;;15.60;99.90;;;;;;5247868;28;20452;-76
2023/09/20 01:11:48;;;;;;;5.68;4.70;;;15.70;99.90;;;;;;5248439;28;20059;-76
2023/09/20 01:14:20;;;;;;;4.85;4.07;;;15.70;99.90;;;;;;5248494;28;20131;-76
2023/09/20 01:16:53;;;;;;;6.35;4.50;;;15.70;99.90;;;;;;5248204;28;20392;-76
2023/09/20 01:19:24;;;;;;;5.22;4.47;;;15.80;99.90;;;;;;5248338;28;20025;-75
2023/09/20 01:21:55;;;;;;;6.45;4.55;;;15.80;99.90;;;;;;5247785;28;20110;-75
2023/09/20 01:24:34;;;;;;;5.57;4.75;;;15.40;99.90;;;;;;5248595;28;20361;-76
2023/09/20 01:27:08;;;;;;;7.40;4.68;;;15.70;99.90;;;;;;5248163;28;20024;-76
2023/09/20 01:29:42;;;;;;;5.18;4.63;;;15.70;99.90;;;;;;5247762;28;20032;-75
2023/09/20 01:32:14;;;;;;;4.75;4.28;;;15.70;99.90;;;;;;5248186;28;20032;-76
2023/09/20 01:34:45;;;;;;;5.25;4.75;;;15.40;99.90;;;;;;5248267;28;20020;-76
2023/09/20 01:37:16;;;;;;;5.40;4.30;;;15.50;99.90;;;;;;5247970;28;20047;-76
2023/09/20 01:39:48;;;;;;;5.35;4.32;;;15.50;99.90;;;;;;5248049;28;20027;-76
2023/09/20 01:42:21;;;;;;;5.50;5.00;;;15.60;99.90;;;;;;5248160;28;20029;-76
2023/09/20 01:44:52;;;;;;;6.55;4.50;;;15.40;99.90;;;;;;5248238;28;20053;-75
2023/09/20 01:47:23;;;;;;;4.97;4.57;;;15.40;99.90;;;;;;5247119;28;20060;-76
2023/09/20 01:49:54;;;;;;;4.45;4.00;;;15.40;99.90;;;;;;5246766;28;20107;-76
2023/09/20 01:52:25;;;;;;;5.45;4.72;;;15.30;99.90;;;;;;5248038;28;20043;-76
2023/09/20 01:54:57;;;;;;;5.40;4.90;;;15.20;99.90;;;;;;5247991;28;20430;-76
2023/09/20 01:57:28;;;;;;;5.85;4.68;;;15.30;99.90;;;;;;5246563;28;20036;-75
2023/09/20 01:59:58;;;;;;;5.50;5.00;;;15.30;99.90;;;;;;5247931;28;20046;-75
2023/09/20 02:02:29;;;;;;;6.88;5.57;;;15.30;99.90;;;;;;5248261;28;20059;-76
2023/09/20 02:05:00;;;;;;;6.65;5.57;;;15.30;99.90;;;;;;5248380;28;20048;-75
2023/09/20 02:07:32;;;;;;;5.05;4.57;;;15.40;99.90;;;;;;5247815;28;20432;-76
2023/09/20 02:10:07;;;;;;;5.20;4.70;;;15.30;99.90;;;;;;5248295;28;20055;-75
2023/09/20 02:12:38;;;;;;;5.60;4.47;;;15.20;99.90;;;;;;5247877;28;20036;-76
2023/09/20 02:15:11;;;;;;;5.00;4.50;;;15.30;99.90;;;;;;5247648;28;20476;-75
2023/09/20 02:17:42;;;;;;;5.82;4.80;;;15.20;99.90;;;;;;5247919;28;20044;-75
2023/09/20 02:20:19;;;;;;;5.32;4.82;;;15.10;99.90;;;;;;5249134;28;20499;-76
2023/09/20 02:22:51;;;;;;;5.75;5.15;;;15.00;99.90;;;;;;5251617;28;20052;-76
2023/09/20 02:25:24;;;;;;;5.50;4.47;;;15.10;99.90;;;;;;5251718;28;20034;-76
2023/09/20 02:28:00;;;;;;;5.53;5.00;;;15.00;99.90;;;;;;5251571;28;20430;-76
2023/09/20 02:30:37;;;;;;;6.28;5.78;;;14.90;99.90;;;;;;5251440;28;20067;-76
2023/09/20 02:33:08;;;;;;;5.68;5.18;;;15.10;99.90;;;;;;5251687;28;20016;-76
2023/09/20 02:35:39;;;;;;;6.50;5.95;;;14.90;99.90;;;;;;5251679;28;20036;-75
2023/09/20 02:38:10;;;;;;;8.27;5.95;;;14.80;99.90;;;;;;5251021;28;20028;-75
2023/09/20 02:40:45;;;;;;;6.05;5.45;;;14.90;99.90;;;;;;5251396;28;20025;-75
2023/09/20 02:43:16;;;;;;;6.20;5.05;;;15.00;99.90;;;;;;5251267;28;20024;-76
2023/09/20 02:45:47;;;;;;;6.45;5.90;;;15.10;99.90;;;;;;5251260;28;20062;-76
2023/09/20 02:48:18;;;;;;;5.63;5.10;;;15.10;99.90;;;;;;5251087;28;20024;-75
2023/09/20 02:50:50;;;;;;;5.63;5.03;;;15.00;99.90;;;;;;5251107;28;20483;-76
2023/09/20 02:53:21;;;;;;;6.18;4.70;;;15.00;99.90;;;;;;5251065;28;20330;-76
2023/09/20 02:55:55;;;;;;;5.05;4.55;;;14.90;99.90;;;;;;5250745;28;20048;-75
2023/09/20 02:58:26;;;;;;;5.82;5.32;;;14.80;99.90;;;;;;5249672;28;20021;-76
2023/09/20 03:00:57;;;;;;;6.68;5.60;;;14.90;99.90;;;;;;5250845;28;20085;-75
2023/09/20 03:03:28;;;;;;;5.85;4.78;;;14.90;99.90;;;;;;5251018;28;20452;-76
2023/09/20 03:06:07;;;;;;;5.75;5.15;;;15.00;99.90;;;;;;5250792;28;20033;-76
2023/09/20 03:08:44;;;;;;;5.20;4.18;;;14.90;99.90;;;;;;5250596;28;20061;-75
2023/09/20 03:11:25;;;;;;;5.90;5.38;;;14.80;99.90;;;;;;5250411;28;20029;-75
2023/09/20 03:13:56;;;;;;;5.53;5.03;;;14.90;99.90;;;;;;5250740;28;20027;-74
2023/09/20 03:16:27;;;;;;;6.53;5.90;;;14.60;99.90;;;;;;5250486;28;20036;-75
2023/09/20 03:18:58;;;;;;;7.38;6.05;;;14.70;99.90;;;;;;5250684;28;20032;-76
2023/09/20 03:21:29;;;;;;;6.72;6.05;;;14.70;99.90;;;;;;5250008;28;20415;-75
2023/09/20 03:24:00;;;;;;;6.50;5.90;;;14.60;99.90;;;;;;5250550;28;20043;-76
2023/09/20 03:26:32;;;;;;;6.43;5.78;;;14.60;99.90;;;;;;5250438;28;20425;-76
2023/09/20 03:29:03;;;;;;;7.18;6.47;;;14.70;99.90;;;;;;5250115;28;20031;-75
2023/09/20 03:31:34;;;;;;;7.18;6.47;;;14.80;99.90;;;;;;5249806;28;20443;-75
2023/09/20 03:34:05;;;;;;;6.85;5.88;;;14.70;99.90;;;;;;5250175;28;20135;-75
2023/09/20 03:36:37;;;;;;;6.90;5.80;;;14.90;99.90;;;;;;5250077;28;20029;-75
2023/09/20 03:39:11;;;;;;;6.65;6.05;;;14.70;99.90;;;;;;5249977;28;20725;-75
2023/09/20 03:41:42;;;;;;;7.80;7.00;;;14.50;99.90;;;;;;5250283;28;20028;-75
2023/09/20 03:44:14;;;;;;;10.55;7.05;;;14.80;99.90;;;;;;5249869;28;20498;-75
2023/09/20 03:46:47;;;;;;;7.38;6.47;;;14.70;99.90;;;;;;5249771;28;20028;-76
2023/09/20 03:49:18;;;;;;;7.65;6.72;;;14.60;99.90;;;;;;5249685;28;20032;-76
2023/09/20 03:51:49;;;;;;;6.75;6.10;;;14.70;99.90;;;;;;5249146;28;20036;-76
2023/09/20 03:54:20;;;;;;;6.80;5.85;;;14.90;99.90;;;;;;5248656;28;20025;-75
2023/09/20 03:56:51;;;;;;;6.50;5.72;;;14.70;99.90;;;;;;5248832;28;20068;-75
2023/09/20 03:59:22;;;;;;;6.90;6.20;;;14.80;99.90;;;;;;5248410;28;20025;-74
2023/09/20 04:01:53;;;;;;;9.23;6.72;;;15.00;99.90;;;;;;5248283;28;20028;-75
2023/09/20 04:04:24;;;;;;;9.38;5.32;;;15.00;99.90;;;;;;5247001;28;20056;-75
2023/09/20 04:06:55;;;;;;;6.93;6.32;;;14.90;99.90;;;;;;5248147;28;20021;-76
2023/09/20 04:09:26;;;;;;;6.63;5.45;;;14.90;99.90;;;;;;5246786;28;20438;-75
2023/09/20 04:11:57;;;;;;;8.10;6.10;;;15.00;99.90;;;;;;5247441;28;20503;-73
2023/09/20 04:14:28;;;;;;;11.98;6.50;;;15.00;99.90;;;;;;5248319;28;20029;-75
2023/09/20 04:16:59;;;;;;;7.35;6.65;;;14.80;99.90;;;;;;5248475;28;20036;-74
2023/09/20 04:19:30;;;;;;;8.23;6.80;;;14.50;99.90;;;;;;5248327;28;20028;-75
2023/09/20 04:22:04;;;;;;;8.80;7.10;;;14.70;99.90;;;;;;5248127;28;20048;-75
2023/09/20 04:24:34;;;;;;;7.85;7.05;;;14.90;99.90;;;;;;5248013;28;20047;-75
2023/09/20 04:27:08;;;;;;;7.38;5.97;;;14.90;99.90;;;;;;5248316;28;20024;-75
2023/09/20 04:29:39;;;;;;;8.98;7.22;;;14.90;99.90;;;;;;5248016;28;20464;-75
2023/09/20 04:32:10;;;;;;;8.80;7.32;;;14.90;99.90;;;;;;5248199;28;20020;-75
2023/09/20 04:34:40;;;;;;;10.35;6.97;;;15.00;99.90;;;;;;5229051;28;20033;-74
2023/09/20 04:37:16;;;;;;;14.55;7.90;;;15.20;99.90;;;;;;5227575;28;20342;-75
2023/09/20 04:39:47;;;;;;;8.52;6.50;;;15.00;99.90;;;;;;5227422;28;20032;-75
2023/09/20 04:42:18;;;;;;;11.98;7.32;;;15.20;99.90;;;;;;5225558;28;20037;-75
2023/09/20 04:44:49;;;;;;;9.70;7.32;;;15.30;99.90;;;;;;5226751;28;20519;-75
2023/09/20 04:47:20;;;;;;;10.43;8.43;;;15.10;99.90;;;;;;5227373;28;20021;-75
2023/09/20 04:49:51;;;;;;;12.70;7.20;;;15.40;99.90;;;;;;5227244;28;20047;-74
2023/09/20 04:52:23;;;;;;;8.85;6.60;;;15.60;99.90;;;;;;5227190;28;20029;-74
2023/09/20 04:54:54;;;;;;;9.07;7.00;;;15.70;99.90;;;;;;5227081;28;20033;-74
2023/09/20 04:57:25;;;;;;;8.00;6.85;;;15.90;99.90;;;;;;5227181;28;20396;-75
2023/09/20 04:59:56;;;;;;;8.57;6.78;;;15.70;99.90;;;;;;5225135;28;20399;-74
2023/09/20 05:02:29;;;;;;;9.95;7.50;;;15.80;99.90;;;;;;5225847;28;20037;-73
2023/09/20 05:05:00;;;;;;;6.95;6.25;;;16.10;99.90;;;;;;5225727;28;20051;-74
2023/09/20 05:07:31;;;;;;;8.68;7.13;;;15.90;99.90;;;;;;5225991;28;20040;-75
2023/09/20 05:10:02;;;;;;;9.32;7.03;;;16.10;99.90;;;;;;5226263;28;20025;-76
2023/09/20 05:12:33;;;;;;;9.13;6.95;;;16.00;99.90;;;;;;5226655;28;20340;-76
2023/09/20 05:15:04;;;;;;;12.82;7.97;;;16.40;99.90;;;;;;5226941;28;20036;-76
2023/09/20 05:17:35;;;;;;;8.50;6.63;;;16.50;99.90;;;;;;5226843;28;20556;-74
2023/09/20 05:20:07;;;;;;;8.88;6.53;;;16.60;99.90;;;;;;5226553;28;20025;-75
2023/09/20 05:22:38;;;;;;;8.85;6.72;;;16.60;99.90;;;;;;5226889;28;20029;-76
2023/09/20 05:25:09;;;;;;;11.50;7.53;;;16.70;99.90;;;;;;5226829;28;20020;-76
2023/09/20 05:27:40;;;;;;;12.55;7.68;;;16.80;99.90;;;;;;5226622;28;20489;-75
2023/09/20 05:30:12;;;;;;;12.65;7.07;;;16.80;99.90;;;;;;5226589;28;20017;-74
2023/09/20 05:32:43;;;;;;;11.10;7.93;;;16.90;99.90;;;;;;5226535;28;20029;-75
2023/09/20 05:35:15;;;;;;;10.93;7.60;;;17.20;99.90;;;;;;5226529;28;20496;-76
2023/09/20 05:37:46;;;;;;;11.13;7.93;;;17.20;99.90;;;;;;5238778;28;20484;-74
2023/09/20 05:40:21;;;;;;;13.23;8.27;;;17.30;99.90;;;;;;5246801;28;20027;-75
2023/09/20 05:42:52;;;;;;;12.30;7.60;;;17.40;99.90;;;;;;5246619;28;20025;-75
2023/09/20 05:45:23;;;;;;;10.90;7.45;;;17.70;99.90;;;;;;5247216;28;20028;-75
2023/09/20 05:47:54;;;;;;;12.27;7.65;;;17.60;99.90;;;;;;5247057;28;20483;-75
2023/09/20 05:50:33;;;;;;;9.05;6.88;;;17.90;99.90;;;;;;5246572;28;20028;-74
2023/09/20 05:53:06;;;;;;;10.18;7.55;;;18.10;99.90;;;;;;5247248;28;20041;-75
2023/09/20 05:55:43;;;;;;;8.95;7.05;;;18.40;99.90;;;;;;5249411;28;20027;-76
2023/09/20 05:58:15;;;;;;;10.40;7.97;;;18.50;99.90;;;;;;5250565;28;20071;-76
2023/09/20 06:00:46;;;;;;;8.95;7.03;;;18.70;99.90;;;;;;5250787;28;20086;-75
2023/09/20 06:03:17;;;;;;;9.07;7.63;;;18.60;99.90;;;;;;5250749;28;20052;-75
2023/09/20 06:05:48;;;;;;;10.25;7.50;;;19.00;99.90;;;;;;5250657;28;20054;-74
2023/09/20 06:08:20;;;;;;;11.88;8.05;;;19.20;99.90;;;;;;5250714;28;20024;-76
2023/09/20 06:10:52;;;;;;;10.63;8.35;;;19.50;99.90;;;;;;5243952;28;20157;-78
2023/09/20 06:13:23;;;;;;;11.68;7.18;;;19.60;99.90;;;;;;5237915;28;20103;-75
2023/09/20 06:15:54;;;;;;;9.80;6.82;;;19.60;99.90;;;;;;5241568;28;20480;-74
2023/09/20 06:18:25;;;;;;;8.02;6.50;;;19.70;99.90;;;;;;5241998;28;20073;-74
2023/09/20 06:20:59;;;;;;;10.02;7.35;;;19.90;99.90;;;;;;5233961;28;20400;-76
2023/09/20 06:23:31;;;;;;;12.05;7.90;;;20.40;99.90;;;;;;5229924;28;20025;-76
2023/09/20 06:26:05;;;;;;;14.40;8.18;;;20.50;99.90;;;;;;5229741;28;20033;-76
2023/09/20 06:28:36;;;;;;;12.85;7.72;;;20.50;99.90;;;;;;5229698;28;20029;-78
2023/09/20 06:31:13;;;;;;;8.15;7.32;;;20.70;99.90;;;;;;5236929;28;20090;-80
2023/09/20 06:33:44;;;;;;;10.15;7.40;;;20.70;99.90;;;;;;5252210;28;20024;-80
2023/09/20 06:36:18;;;;;;;10.52;7.95;;;20.90;99.90;;;;;;5251366;28;20039;-79
2023/09/20 06:38:49;;;;;;;7.97;7.18;;;21.00;99.90;;;;;;5251309;28;20547;-79
2023/09/20 06:41:20;;;;;;;8.50;6.43;;;21.10;99.90;;;;;;5251286;28;20021;-81
2023/09/20 06:43:51;;;;;;;10.32;7.05;;;21.10;99.90;;;;;;5251358;28;20177;-81
2023/09/20 06:46:24;;;;;;;8.25;7.45;;;21.30;99.90;;;;;;5251322;28;20113;-79
2023/09/20 06:48:57;;;;;;;7.43;6.28;;;21.40;99.90;;;;;;5251092;28;20025;-79
2023/09/20 06:51:28;;;;;;;7.53;6.85;;;21.50;99.90;;;;;;5250896;28;20032;-78
2023/09/20 06:53:59;;;;;;;9.60;7.47;;;21.70;99.90;;;;;;5251139;28;20380;-79
2023/09/20 06:56:31;;;;;;;7.47;6.68;;;22.10;99.90;;;;;;5249815;28;20070;-81
2023/09/20 06:59:03;;;;;;;10.48;7.28;;;22.20;99.90;;;;;;5251063;28;20051;-80
2023/09/20 07:01:34;;;;;;;9.88;7.45;;;22.20;99.90;;;;;;5249757;28;20028;-80
2023/09/20 07:04:05;;;;;;;8.65;6.57;;;22.20;99.90;;;;;;5247840;28;20550;-79
2023/09/20 07:06:38;;;;;;;9.57;7.05;;;22.30;99.90;;;;;;5240199;28;20053;-82
2023/09/20 07:09:10;;;;;;;10.20;6.97;;;22.40;99.90;;;;;;5246266;28;20388;-78
2023/09/20 07:11:46;;;;;;;9.88;7.07;;;22.50;99.90;;;;;;5242232;28;20488;-83
2023/09/20 07:14:21;;;;;;;11.40;6.65;;;22.50;99.90;;;;;;5236483;28;20035;-82
2023/09/20 07:17:03;;;;;;;7.32;6.00;;;22.60;99.90;;;;;;5250331;28;20032;-82
2023/09/20 07:19:39;;;;;;;7.85;5.78;;;22.80;99.90;;;;;;5238718;28;20388;-82
2023/09/20 07:22:12;;;;;;;8.05;7.35;;;22.80;99.90;;;;;;5229301;28;20504;-80
2023/09/20 07:24:45;;;;;;;8.82;8.10;;;22.90;99.90;;;;;;5250249;28;20040;-83
2023/09/20 07:27:18;;;;;;;8.68;7.78;;;23.00;99.90;;;;;;5249365;28;20013;-79
2023/09/20 07:29:51;;;;;;;11.07;8.48;;;23.00;99.90;;;;;;5229680;28;20025;-80
2023/09/20 07:32:23;;;;;;;9.93;7.53;;;23.10;99.90;;;;;;5229727;28;20044;-80
2023/09/20 07:34:59;;;;;;;8.32;6.53;;;23.00;99.90;;;;;;5229601;28;20468;-81
2023/09/20 07:37:30;;;;;;;5.78;4.88;;;23.10;99.90;;;;;;5228487;28;20102;-82
2023/09/20 07:40:02;;;;;;;4.38;3.97;;;23.00;99.90;;;;;;5229532;28;20013;-81
2023/09/20 07:42:33;;;;;;;4.45;4.05;;;23.30;99.90;;;;;;5228499;28;20542;-81
2023/09/20 07:45:08;;;;;;;5.45;4.45;;;23.50;99.90;;;;;;5229373;28;20040;-81
2023/09/20 07:47:43;;;;;;;5.85;4.75;;;23.60;99.90;;;;;;5229344;28;20053;-80
2023/09/20 07:50:14;;;;;;;6.82;6.32;;;23.80;99.90;;;;;;5229264;28;20102;-80
2023/09/20 07:52:45;;;;;;;5.43;4.95;;;24.00;99.90;;;;;;5228027;28;20384;-80
2023/09/20 07:55:17;;;;;;;8.23;6.15;;;24.20;99.90;;;;;;5227869;28;20040;-81
2023/09/20 07:57:48;;;;;;;6.68;6.07;;;24.00;99.90;;;;;;5229276;28;20036;-81
2023/09/20 08:00:20;;;;;;;6.30;5.78;;;23.90;99.90;;;;;;5229282;28;20028;-81
2023/09/20 08:02:54;;;;;;;5.55;5.05;;;23.70;99.90;;;;;;5227839;28;20071;-81
2023/09/20 08:05:25;;;;;;;5.90;4.95;;;23.50;99.90;;;;;;5227656;28;20024;-80
2023/09/20 08:07:55;;;;;;;6.03;5.53;;;23.40;99.90;;;;;;5227559;28;20400;-80
2023/09/20 08:10:27;;;;;;;5.43;4.95;;;23.30;99.90;;;;;;5237903;28;20016;-83
2023/09/20 08:12:57;;;;;;;6.03;5.38;;;23.50;99.90;;;;;;5249581;28;20031;-81
2023/09/20 08:15:28;;;;;;;5.03;4.53;;;23.90;99.90;;;;;;5248084;28;20025;-83
2023/09/20 08:20:48;;;;;;;6.75;6.15;;;24.00;99.90;;;;;;5248985;28;20717;-78
2023/09/20 09:00:25;;;;;;;5.88;4.70;;;25.20;99.90;;;;;;5248331;28;20085;-77
2023/09/20 09:02:58;;;;;;;8.35;4.75;;;25.30;99.90;;;;;;5248354;28;20030;-78
2023/09/20 09:05:30;;;;;;;5.35;4.78;;;25.20;99.90;;;;;;5248684;28;20460;-78
2023/09/20 09:08:02;;;;;;;10.95;4.93;;;25.30;99.90;;;;;;5248610;28;20021;-77
2023/09/20 09:10:33;;;;;;;8.15;4.05;;;25.20;99.90;;;;;;5248317;28;20021;-79
2023/09/20 09:13:04;;;;;;;4.35;3.95;;;25.60;99.90;;;;;;5248298;28;20115;-77
2023/09/20 09:15:35;;;;;;;6.53;4.40;;;25.60;99.90;;;;;;5248481;28;20444;-78
2023/09/20 09:18:16;;;;;;;9.13;4.63;;;25.90;99.90;;;;;;5248159;28;20070;-78
2023/09/20 09:20:49;;;;;;;7.80;4.70;;;25.90;99.90;;;;;;5247261;28;20044;-78
2023/09/20 09:23:35;;;;;;;6.57;4.97;;;26.20;99.90;;;;;;5247265;28;20448;-78
2023/09/20 09:26:07;;;;;;;5.18;4.78;;;25.80;99.90;;;;;;5247647;28;20379;-78
2023/09/20 09:28:46;;;;;;;6.18;5.60;;;25.90;99.90;;;;;;5247606;28;20017;-78
2023/09/20 09:31:17;;;;;;;5.20;4.70;;;25.90;99.90;;;;;;5248196;28;20031;-77
2023/09/20 09:33:48;;;;;;;6.05;5.53;;;26.20;99.90;;;;;;5246734;28;20033;-77
2023/09/20 09:36:19;;;;;;;6.63;6.18;;;26.30;99.90;;;;;;5247759;28;20041;-78
2023/09/20 09:38:50;;;;;;;7.80;6.80;;;26.20;99.90;;;;;;5247663;28;20349;-77
2023/09/20 09:41:21;;;;;;;7.72;7.13;;;26.10;99.90;;;;;;5247754;28;20383;-77
2023/09/20 09:43:58;;;;;;;7.47;6.75;;;26.20;99.90;;;;;;5247842;28;20021;-78
2023/09/20 09:46:30;;;;;;;7.78;7.20;;;26.50;99.90;;;;;;5247782;28;20082;-77
2023/09/20 09:49:02;;;;;;;7.63;7.03;;;26.50;99.90;;;;;;5247899;28;20021;-79
2023/09/20 09:51:35;;;;;;;7.43;6.95;;;26.80;99.90;;;;;;5247622;28;20079;-79
2023/09/20 09:54:08;;;;;;;7.22;6.70;;;27.00;99.90;;;;;;5241390;28;20035;-78
2023/09/20 09:56:39;;;;;;;6.82;6.13;;;27.00;99.90;;;;;;5247561;28;20028;-79
2023/09/20 09:59:10;;;;;;;7.30;6.60;;;27.10;99.90;;;;;;5234424;28;20041;-75
2023/09/20 10:01:42;;;;;;;6.20;5.70;;;27.20;99.90;;;;;;5226867;28;20017;-78
2023/09/20 10:04:17;;;;;;;7.50;6.80;;;27.20;99.90;;;;;;5227558;28;20464;-78
2023/09/20 10:06:48;;;;;;;6.53;6.03;;;27.20;99.90;;;;;;5752608;22;20067;-77
2023/09/20 10:09:24;;;;;;;6.13;5.63;;;27.40;99.90;;;;;;5207846;28;20111;-77
2023/09/20 10:11:55;;;;;;;6.97;6.38;;;27.50;99.90;;;;;;5209054;28;20025;-79
2023/09/20 10:14:27;;;;;;;7.47;6.05;;;27.40;99.90;;;;;;5226613;28;20027;-76
2023/09/20 10:17:02;;;;;;;5.68;5.25;;;27.50;99.90;;;;;;5226462;28;20037;-79
2023/09/20 10:19:36;;;;;;;6.88;6.25;;;27.40;99.90;;;;;;5241572;28;20035;-77
2023/09/20 10:22:09;;;;;;;6.72;6.22;;;27.50;99.90;;;;;;5226155;28;20068;-76
2023/09/20 10:24:50;;;;;;;6.10;5.60;;;27.60;99.90;;;;;;5226656;28;20345;-77
2023/09/20 10:27:23;;;;;;;6.40;5.38;;;27.50;99.90;;;;;;5226312;28;20041;-76
2023/09/20 10:30:09;;;;;;;5.75;5.30;;;27.50;99.90;;;;;;5226471;28;20028;-77
2023/09/20 10:32:57;;;;;;;5.50;5.05;;;27.80;99.90;;;;;;5219879;28;20108;-77
2023/09/20 10:35:32;;;;;;;7.35;6.80;;;27.70;99.90;;;;;;5226421;28;20374;-80
2023/09/20 10:38:17;;;;;;;7.68;7.15;;;27.60;99.90;;;;;;5226318;28;20033;-76
2023/09/20 10:40:49;;;;;;;9.07;8.38;;;27.50;99.90;;;;;;5226525;28;20013;-78
2023/09/20 10:43:25;;;;;;;7.80;7.07;;;27.50;99.90;;;;;;5230080;28;20031;-77
2023/09/20 10:45:57;;;;;;;5.97;5.55;;;27.50;99.90;;;;;;5230352;28;20086;-77
2023/09/20 10:48:28;;;;;;;6.90;6.28;;;27.50;99.90;;;;;;5230586;28;20017;-79
2023/09/20 10:50:59;;;;;;;6.60;6.20;;;27.70;99.90;;;;;;5230152;28;20071;-78
2023/09/20 10:53:43;;;;;;;8.98;8.27;;;28.00;99.90;;;;;;5211546;28;20021;-76
2023/09/20 10:56:44;;;;;;;9.73;9.10;;;27.70;99.90;;;;;;5212585;28;20029;-79
2023/09/20 10:59:18;;;;;;;8.85;8.35;;;27.70;99.90;;;;;;5228063;28;20025;-76
2023/09/20 11:01:59;;;;;;;10.20;9.48;;;28.00;99.90;;;;;;5229560;28;20040;-76
2023/09/20 11:04:30;;;;;;;11.00;10.30;;;28.10;99.90;;;;;;5229793;28;20028;-80
2023/09/20 11:07:02;;;;;;;11.05;10.27;;;28.00;99.90;;;;;;5229616;28;20053;-79
2023/09/20 11:09:34;;;;;;;10.25;9.63;;;28.00;99.90;;;;;;5230036;28;20096;-77
2023/09/20 11:12:06;;;;;;;11.63;10.85;;;27.90;99.90;;;;;;5230070;28;20021;-78
2023/09/20 11:14:44;;;;;;;10.20;9.48;;;28.10;99.90;;;;;;5230145;28;20420;-77
2023/09/20 11:17:19;;;;;;;9.65;9.00;;;28.10;99.90;;;;;;5229629;28;20057;-78
2023/09/20 11:19:50;;;;;;;8.15;7.65;;;28.20;99.90;;;;;;5230042;28;20021;-78
2023/09/20 11:22:22;;;;;;;7.18;6.40;;;28.30;99.90;;;;;;5229899;28;20104;-78
2023/09/20 11:24:55;;;;;;;6.65;6.15;;;28.20;99.90;;;;;;5229765;28;20594;-77
2023/09/20 11:27:26;;;;;;;6.32;5.78;;;28.20;99.90;;;;;;5211571;28;20025;-78
2023/09/20 11:30:11;;;;;;;6.88;6.25;;;28.20;99.90;;;;;;5229664;28;20025;-76
2023/09/20 11:32:42;;;;;;;6.13;5.63;;;28.10;99.90;;;;;;5229574;28;20451;-76
2023/09/20 11:35:37;;;;;;;7.18;6.53;;;28.40;99.90;;;;;;5229132;28;20025;-76
2023/09/20 11:38:15;;;;;;;7.07;6.57;;;28.00;99.90;;;;;;5229419;28;20029;-78
2023/09/20 11:40:47;;;;;;;6.85;6.35;;;28.10;99.90;;;;;;5229004;28;20044;-77
2023/09/20 11:43:20;;;;;;;5.38;4.97;;;28.40;99.90;;;;;;5229249;28;20025;-76
2023/09/20 11:45:53;;;;;;;7.13;6.40;;;28.00;99.90;;;;;;5228213;28;20030;-77
2023/09/20 11:48:28;;;;;;;6.65;6.05;;;28.00;99.90;;;;;;5228988;28;20028;-78
2023/09/20 11:51:03;;;;;;;6.93;6.43;;;28.00;99.90;;;;;;5228961;28;20498;-78
2023/09/20 11:53:36;;;;;;;6.88;6.13;;;28.20;99.90;;;;;;5228297;28;20814;-77
2023/09/20 11:56:07;;;;;;;6.63;6.05;;;27.90;99.90;;;;;;5228632;28;20037;-78
2023/09/20 11:58:38;;;;;;;7.32;6.68;;;27.50;99.90;;;;;;5229034;28;20033;-77
2023/09/20 12:01:09;;;;;;;7.85;7.25;;;27.80;99.90;;;;;;5228443;28;20037;-76
2023/09/20 12:03:40;;;;;;;8.60;8.10;;;27.50;99.90;;;;;;5210898;28;20476;-77
2023/09/20 12:06:12;;;;;;;7.47;6.88;;;27.90;99.90;;;;;;5210220;28;20052;-77
2023/09/20 12:08:48;;;;;;;7.10;6.63;;;27.90;99.90;;;;;;5210645;28;20037;-78
2023/09/20 12:11:20;;;;;;;7.80;7.20;;;27.80;99.90;;;;;;5210498;28;20114;-77
2023/09/20 12:13:51;;;;;;;7.68;7.03;;;27.90;99.90;;;;;;5210631;28;20480;-77
2023/09/20 12:16:23;;;;;;;5.82;5.40;;;28.00;99.90;;;;;;5228334;28;20048;-77
2023/09/20 12:18:54;;;;;;;6.05;5.65;;;28.00;99.90;;;;;;5228642;28;20024;-77
2023/09/20 12:21:25;;;;;;;6.15;4.50;;;28.20;99.90;;;;;;5228569;28;20048;-78
2023/09/20 12:23:56;;;;;;;5.50;5.00;;;28.00;99.90;;;;;;5210353;28;20480;-78
2023/09/20 12:26:28;;;;;;;5.35;4.70;;;28.10;99.90;;;;;;5228414;28;20025;-77
2023/09/20 12:28:59;;;;;;;5.25;4.80;;;28.30;99.90;;;;;;5228156;28;20021;-77
2023/09/20 12:31:30;;;;;;;6.93;4.70;;;28.20;99.90;;;;;;5210032;28;20108;-76
2023/09/20 12:34:01;;;;;;;4.90;4.35;;;28.20;99.90;;;;;;5228153;28;20389;-77
2023/09/20 12:36:32;;;;;;;4.72;4.40;;;28.20;99.90;;;;;;5227731;28;20037;-79
2023/09/20 12:39:04;;;;;;;6.47;4.57;;;28.10;99.90;;;;;;5228117;28;20096;-78
2023/09/20 12:41:37;;;;;;;4.85;4.50;;;28.00;99.90;;;;;;5228352;28;20100;-76
2023/09/20 12:44:09;;;;;;;5.43;4.40;;;27.90;99.90;;;;;;5228075;28;20025;-77
2023/09/20 12:46:40;;;;;;;5.40;3.75;;;28.20;99.90;;;;;;5228148;28;20104;-78
2023/09/20 12:49:11;;;;;;;5.30;3.35;;;28.00;99.90;;;;;;5227775;28;20104;-78
2023/09/20 12:51:42;;;;;;;9.68;4.32;;;28.10;99.90;;;;;;5227983;28;20017;-78
2023/09/20 12:54:16;;;;;;;4.53;4.13;;;28.00;99.90;;;;;;5227876;28;20025;-77
2023/09/20 12:56:47;;;;;;;4.45;4.07;;;28.50;99.90;;;;;;5227887;28;20035;-78
2023/09/20 12:59:19;;;;;;;4.13;3.83;;;28.10;99.90;;;;;;5228183;28;20017;-77
2023/09/20 13:01:50;;;;;;;4.72;3.70;;;28.20;99.90;;;;;;5227911;28;20021;-77
2023/09/20 13:04:21;;;;;;;4.18;3.78;;;28.00;99.90;;;;;;5226912;28;20020;-77
2023/09/20 13:06:52;;;;;;;4.30;3.90;;;28.10;99.90;;;;;;5209479;28;20061;-76
2023/09/20 13:09:22;;;;;;;3.80;3.50;;;27.90;99.90;;;;;;5209686;28;20021;-78
2023/09/20 13:11:54;;;;;;;4.00;3.60;;;28.10;99.90;;;;;;5227840;28;20032;-77
2023/09/20 13:14:24;;;;;;;4.43;4.03;;;28.00;99.90;;;;;;5227866;28;20017;-77
2023/09/20 13:16:56;;;;;;;4.07;3.78;;;28.00;99.90;;;;;;5227239;28;20049;-77
2023/09/20 13:19:26;;;;;;;4.00;3.58;;;28.00;99.90;;;;;;5227339;28;20028;-78
2023/09/20 13:21:59;;;;;;;3.53;3.28;;;28.00;99.90;;;;;;5227557;28;20020;-78
2023/09/20 13:24:33;;;;;;;5.25;3.60;;;28.10;99.90;;;;;;5227542;28;20539;-76
2023/09/20 13:27:03;;;;;;;3.88;3.45;;;27.80;99.90;;;;;;5227354;28;20036;-76
2023/09/20 13:29:34;;;;;;;4.90;3.60;;;28.00;99.90;;;;;;5227408;28;20062;-81
2023/09/20 13:32:08;;;;;;;4.25;3.47;;;28.10;99.90;;;;;;5227001;28;20452;-76
2023/09/20 13:34:40;;;;;;;3.67;3.38;;;28.00;99.90;;;;;;5227459;28;20056;-77
2023/09/20 13:37:12;;;;;;;4.45;4.10;;;28.10;99.90;;;;;;5227089;28;20077;-76
2023/09/20 13:39:43;;;;;;;4.18;3.78;;;27.80;99.90;;;;;;5227398;28;20025;-77
2023/09/20 13:42:15;;;;;;;3.88;3.40;;;27.90;99.90;;;;;;5227379;28;20040;-77
2023/09/20 13:44:49;;;;;;;3.80;3.47;;;27.70;99.90;;;;;;5227512;28;20142;-77
2023/09/20 13:47:20;;;;;;;4.40;4.05;;;27.80;99.90;;;;;;5227511;28;20113;-80
2023/09/20 13:49:52;;;;;;;5.57;4.40;;;27.40;99.90;;;;;;5209321;28;20116;-79
2023/09/20 13:52:23;;;;;;;4.35;3.92;;;27.60;99.90;;;;;;5227269;28;20029;-76